Time;durP1;ratioP1;P1;durP2;ratioP2;P2;SDS_P1;SDS_P2;PMS_P1;PMS_P2;Temp;Humidity;BMP_temperature;BMP_pressure;BME280_temperature;BME280_humidity;BME280_pressure;Samples;Min_cycle;Max_cycle;Signal;HPM_P1;HPM_P2
2023/09/13 00:00:18;;;;;;;199.97;65.97;;;;;;;22.22;68.19;100939.06;4898119;28;97675;-52
2023/09/13 00:02:44;;;;;;;56.90;19.73;;;;;;;22.21;68.13;100940.41;4903325;28;97336;-51
2023/09/13 00:05:09;;;;;;;17.80;8.87;;;;;;;22.21;68.37;100943.91;4899992;28;97451;-51
2023/09/13 00:07:35;;;;;;;238.40;81.13;;;;;;;22.23;68.04;100952.53;4900961;28;97194;-51
2023/09/13 00:10:01;;;;;;;180.30;55.83;;;;;;;22.28;68.01;100959.22;4899114;28;100860;-51
2023/09/13 00:12:26;;;;;;;215.80;77.53;;;;;;;22.29;68.08;100943.91;4899546;28;99393;-51
2023/09/13 00:14:51;;;;;;;186.97;63.70;;;;;;;22.29;68.12;100944.66;4900650;28;97340;-51
2023/09/13 00:17:20;;;;;;;165.47;56.47;;;;;;;22.30;68.06;100951.72;4900079;28;97195;-51
2023/09/13 00:19:46;;;;;;;160.43;53.87;;;;;;;22.29;68.01;100952.31;4899203;28;97527;-51
2023/09/13 00:22:12;;;;;;;91.07;36.40;;;;;;;22.29;68.00;100943.91;4899704;28;98458;-51
2023/09/13 00:24:38;;;;;;;146.80;50.77;;;;;;;22.29;68.04;100946.69;4899178;28;97078;-51
2023/09/13 00:27:03;;;;;;;244.20;87.73;;;;;;;22.27;68.01;100940.91;4898654;28;97276;-51
2023/09/13 00:29:32;;;;;;;181.20;62.47;;;;;;;22.25;68.10;100933.09;4896150;28;97523;-51
2023/09/13 00:31:58;;;;;;;132.40;47.40;;;;;;;22.21;68.16;100926.38;4899197;28;97985;-51
2023/09/13 00:34:23;;;;;;;279.23;76.67;;;;;;;22.22;68.34;100925.06;4897675;28;96848;-51
2023/09/13 00:36:48;;;;;;;8.77;7.87;;;;;;;22.23;68.22;100918.91;4898228;28;101079;-51
2023/09/13 00:39:14;;;;;;;105.13;36.67;;;;;;;22.25;68.24;100915.50;4904312;28;97331;-51
2023/09/13 00:41:39;;;;;;;31.77;11.60;;;;;;;22.27;68.06;100910.84;4900359;28;98620;-51
2023/09/13 00:44:05;;;;;;;9.40;6.60;;;;;;;22.28;67.93;100903.16;4899422;28;97128;-51
2023/09/13 00:46:30;;;;;;;71.93;27.80;;;;;;;22.25;68.12;100899.44;4901794;28;97627;-52
2023/09/13 00:48:57;;;;;;;40.17;21.50;;;;;;;22.25;67.91;100896.66;4899402;28;97302;-52
2023/09/13 00:51:23;;;;;;;210.17;75.73;;;;;;;22.23;67.91;100899.28;4889852;28;97479;-52
2023/09/13 00:53:48;;;;;;;181.50;60.90;;;;;;;22.22;68.11;100891.41;4899565;28;97067;-51
2023/09/13 00:56:15;;;;;;;178.37;64.40;;;;;;;22.19;68.04;100890.50;4898983;28;97047;-52
2023/09/13 00:58:40;;;;;;;215.03;75.90;;;;;;;22.18;68.07;100894.63;4902493;28;97368;-52
2023/09/13 01:01:06;;;;;;;244.50;85.80;;;;;;;22.19;68.29;100895.38;4905017;28;100261;-52
2023/09/13 01:03:32;;;;;;;311.97;98.07;;;;;;;22.19;68.11;100898.91;4901950;28;96781;-52
2023/09/13 01:05:58;;;;;;;344.57;122.83;;;;;;;22.22;68.24;100903.38;4898151;28;96888;-51
2023/09/13 01:08:24;;;;;;;257.27;84.77;;;;;;;22.26;68.26;100906.53;4901909;28;97613;-51
2023/09/13 01:10:49;;;;;;;267.70;90.87;;;;;;;22.25;68.23;100909.91;4901074;28;97195;-52
2023/09/13 01:13:14;;;;;;;198.83;67.97;;;;;;;22.25;68.10;100919.06;4897801;28;96947;-51
2023/09/13 01:15:54;;;;;;;11.23;7.63;;;;;;;22.27;68.00;100910.84;4903356;28;96856;-52
2023/09/13 01:18:33;;;;;;;170.37;53.03;;;;;;;22.30;68.14;100911.75;4896049;28;99632;-52
2023/09/13 01:21:19;;;;;;;74.80;28.80;;;;;;;22.30;68.12;100908.97;4896948;28;99330;-52
2023/09/13 01:24:16;;;;;;;107.03;35.77;;;;;;;22.30;68.08;100900.56;4898453;28;97095;-52
2023/09/13 01:26:58;;;;;;;111.90;42.80;;;;;;;22.31;67.94;100897.16;4899895;28;96771;-52
2023/09/13 01:29:25;;;;;;;88.17;35.17;;;;;;;22.32;68.04;100903.53;4898348;28;98391;-52
2023/09/13 01:31:51;;;;;;;44.60;22.23;;;;;;;22.31;68.09;100899.97;4881965;28;99329;-52
2023/09/13 01:34:16;;;;;;;121.53;48.40;;;;;;;22.31;68.00;100899.22;4900403;28;96843;-52
2023/09/13 01:36:42;;;;;;;181.07;69.17;;;;;;;22.30;68.14;100900.56;4900160;28;97056;-52
2023/09/13 01:39:07;;;;;;;6.10;5.50;;;;;;;22.29;67.99;100899.78;4898921;28;98429;-52
2023/09/13 01:41:47;;;;;;;5.43;4.97;;;;;;;22.26;68.13;100900.91;4897769;28;97319;-52
2023/09/13 01:44:15;;;;;;;53.63;21.33;;;;;;;22.23;68.08;100890.13;4897936;28;97647;-52
2023/09/13 01:46:45;;;;;;;88.50;32.57;;;;;;;22.22;68.11;100903.38;4897514;28;97161;-52
2023/09/13 01:49:13;;;;;;;85.13;29.73;;;;;;;22.22;68.30;100897.03;4899586;28;96938;-53
2023/09/13 01:51:39;;;;;;;9.97;9.00;;;;;;;22.22;68.24;100894.22;4899104;28;97130;-52
2023/09/13 01:54:05;;;;;;;6.07;5.57;;;;;;;22.23;68.20;100907.69;4898527;28;97590;-52
2023/09/13 01:56:30;;;;;;;15.17;8.87;;;;;;;22.23;68.19;100899.28;4898811;28;96950;-52
2023/09/13 01:58:56;;;;;;;5.70;5.23;;;;;;;22.23;68.18;100896.47;4897877;28;97666;-52
2023/09/13 02:01:22;;;;;;;7.00;6.40;;;;;;;22.23;68.24;100892.91;4896933;28;97619;-53
2023/09/13 02:03:47;;;;;;;8.13;7.00;;;;;;;22.23;68.15;100896.47;4896802;28;96895;-53
2023/09/13 02:06:12;;;;;;;6.13;5.60;;;;;;;22.25;68.07;100904.31;4898830;28;96878;-52
2023/09/13 02:08:39;;;;;;;7.53;6.67;;;;;;;22.23;68.05;100893.66;4896637;28;97110;-53
2023/09/13 02:11:08;;;;;;;6.53;5.80;;;;;;;22.22;67.98;100889.38;4899794;28;98201;-53
2023/09/13 02:13:33;;;;;;;6.03;5.03;;;;;;;22.20;68.12;100886.38;4901638;28;96796;-53
2023/09/13 02:15:59;;;;;;;13.83;8.10;;;;;;;22.21;67.98;100904.69;4896689;28;97041;-52
2023/09/13 02:18:24;;;;;;;6.57;5.73;;;;;;;22.18;68.04;100888.25;4896963;28;97133;-53
2023/09/13 02:20:50;;;;;;;15.60;8.63;;;;;;;22.17;68.10;100881.19;4897053;28;97343;-52
2023/09/13 02:23:15;;;;;;;15.67;9.87;;;;;;;22.14;68.19;100879.50;4899134;28;97266;-52
2023/09/13 02:25:44;;;;;;;11.03;9.57;;;;;;;22.13;68.21;100872.41;4903729;28;96958;-52
2023/09/13 02:28:10;;;;;;;6.50;5.50;;;;;;;22.13;68.16;100881.56;4901224;28;97823;-52
2023/09/13 02:30:35;;;;;;;4.93;4.53;;;;;;;22.13;67.99;100875.94;4905603;28;98361;-53
2023/09/13 02:33:01;;;;;;;14.00;8.57;;;;;;;22.09;68.16;100892.41;4901549;28;96947;-52
2023/09/13 02:35:26;;;;;;;13.33;8.80;;;;;;;22.06;68.44;100881.59;4902718;28;96702;-53
2023/09/13 02:37:52;;;;;;;5.57;5.10;;;;;;;22.04;68.27;100890.56;4904549;28;97291;-53
2023/09/13 02:40:17;;;;;;;7.73;6.90;;;;;;;22.03;68.40;100883.47;4900939;28;105719;-53
2023/09/13 02:42:43;;;;;;;6.47;5.87;;;;;;;22.02;68.41;100881.97;4902334;28;96911;-53
2023/09/13 02:45:09;;;;;;;10.67;8.37;;;;;;;21.99;68.36;100876.78;4900769;28;97200;-53
2023/09/13 02:47:34;;;;;;;5.63;5.07;;;;;;;21.98;68.36;100878.81;4902562;28;96840;-53
2023/09/13 02:49:59;;;;;;;5.47;4.97;;;;;;;21.98;68.48;100881.63;4901172;28;97252;-54
2023/09/13 02:52:33;;;;;;;18.23;12.47;;;;;;;22.02;68.46;100884.03;4899366;28;97142;-53
2023/09/13 02:55:00;;;;;;;6.50;5.90;;;;;;;22.03;68.56;100880.69;4901127;28;96818;-53
2023/09/13 02:57:26;;;;;;;14.33;8.93;;;;;;;22.05;68.44;100880.84;4905388;28;97524;-53
2023/09/13 02:59:52;;;;;;;13.77;8.17;;;;;;;22.08;68.54;100887.38;4904539;28;97049;-53
2023/09/13 03:02:17;;;;;;;15.57;5.67;;;;;;;22.11;68.44;100886.22;4902732;28;96915;-53
2023/09/13 03:04:43;;;;;;;53.43;24.03;;;;;;;22.12;68.33;100884.94;4903198;28;96971;-54
2023/09/13 03:07:09;;;;;;;21.90;10.27;;;;;;;22.15;68.36;100892.19;4900849;28;97547;-53
2023/09/13 03:09:35;;;;;;;8.53;7.77;;;;;;;22.16;68.36;100888.84;4902493;28;97964;-53
2023/09/13 03:12:01;;;;;;;72.87;28.20;;;;;;;22.17;68.36;100892.38;4900089;28;97161;-53
2023/09/13 03:14:28;;;;;;;19.80;10.63;;;;;;;22.17;68.27;100890.31;4895295;28;97739;-52
2023/09/13 03:16:53;;;;;;;9.30;8.53;;;;;;;22.18;68.23;100883.41;4900135;28;96890;-52
2023/09/13 03:19:18;;;;;;;10.97;5.93;;;;;;;22.20;68.08;100891.25;4900625;28;96751;-53
2023/09/13 03:21:44;;;;;;;15.27;9.73;;;;;;;22.20;68.21;100889.19;4901753;28;97608;-52
2023/09/13 03:24:09;;;;;;;5.03;4.63;;;;;;;22.21;68.15;100890.66;4902912;28;97029;-53
2023/09/13 03:26:35;;;;;;;5.33;4.93;;;;;;;22.22;68.13;100894.22;4900936;28;97179;-52
2023/09/13 03:29:01;;;;;;;11.43;8.67;;;;;;;22.23;68.10;100896.47;4898257;28;97214;-52
2023/09/13 03:31:27;;;;;;;10.10;8.83;;;;;;;22.24;68.09;100897.94;4899671;28;97339;-53
2023/09/13 03:33:54;;;;;;;10.73;9.37;;;;;;;22.24;68.20;100892.34;4899532;28;97116;-53
2023/09/13 03:36:20;;;;;;;24.40;15.50;;;;;;;22.23;68.24;100899.28;4898359;28;96771;-52
2023/09/13 03:38:46;;;;;;;33.53;14.57;;;;;;;22.24;68.19;100900.75;4900315;28;97604;-52
2023/09/13 03:41:15;;;;;;;12.87;9.60;;;;;;;22.25;68.27;100893.84;4899848;28;97091;-53
2023/09/13 03:43:40;;;;;;;38.97;16.57;;;;;;;22.25;68.13;100885.44;4901001;28;97149;-52
2023/09/13 03:46:07;;;;;;;29.50;12.57;;;;;;;22.25;68.26;100887.47;4898821;28;97586;-52
2023/09/13 03:48:34;;;;;;;8.33;7.60;;;;;;;22.25;68.14;100893.09;4899933;28;97123;-52
2023/09/13 03:50:59;;;;;;;25.23;11.07;;;;;;;22.25;68.22;100893.09;4897426;28;96808;-52
2023/09/13 03:53:25;;;;;;;125.53;39.37;;;;;;;22.24;68.20;100897.94;4900894;28;97122;-52
2023/09/13 03:55:54;;;;;;;279.53;93.23;;;;;;;22.25;68.35;100896.66;4904001;28;98082;-52
2023/09/13 03:58:21;;;;;;;283.10;98.27;;;;;;;22.25;68.35;100887.47;4900824;28;97052;-52
2023/09/13 04:00:47;;;;;;;335.90;111.93;;;;;;;22.25;68.28;100893.09;4897114;28;97354;-52
2023/09/13 04:03:16;;;;;;;343.60;105.33;;;;;;;22.25;68.22;100885.44;4900151;28;97803;-52
2023/09/13 04:05:42;;;;;;;298.50;91.47;;;;;;;22.25;68.26;100893.09;4895768;28;99218;-52
2023/09/13 04:08:07;;;;;;;280.90;98.70;;;;;;;22.25;68.19;100890.28;4898860;28;97183;-52
2023/09/13 04:10:33;;;;;;;322.87;123.83;;;;;;;22.24;68.31;100888.78;4894531;28;97184;-53
2023/09/13 04:12:58;;;;;;;261.87;98.07;;;;;;;22.23;68.20;100895.72;4898289;28;97193;-53
2023/09/13 04:15:23;;;;;;;276.53;86.60;;;;;;;22.24;68.22;100886.72;4896639;28;96999;-54
2023/09/13 04:17:49;;;;;;;302.30;108.87;;;;;;;22.23;68.23;100884.50;4894709;28;97246;-53
2023/09/13 04:20:15;;;;;;;249.03;83.27;;;;;;;22.24;68.29;100881.13;4909858;28;96862;-53
2023/09/13 04:22:40;;;;;;;204.37;61.30;;;;;;;22.23;68.18;100884.50;4901081;28;96817;-53
2023/09/13 04:25:06;;;;;;;305.00;95.43;;;;;;;22.24;68.34;100880.38;4897791;28;97304;-53
2023/09/13 04:27:31;;;;;;;281.87;88.50;;;;;;;22.24;68.36;100881.13;4898218;28;96928;-54
2023/09/13 04:29:57;;;;;;;180.83;63.23;;;;;;;22.22;68.22;100880.97;4901020;28;97060;-53
2023/09/13 04:32:26;;;;;;;237.93;86.77;;;;;;;22.22;68.23;100886.56;4898618;28;97044;-54
2023/09/13 04:34:52;;;;;;;196.83;71.37;;;;;;;22.21;68.16;100890.66;4900138;28;97316;-54
2023/09/13 04:37:18;;;;;;;271.30;80.43;;;;;;;22.22;68.38;100897.78;4907850;28;97645;-54
2023/09/13 04:39:44;;;;;;;143.77;47.67;;;;;;;22.21;68.19;100896.28;4898527;28;97227;-54
2023/09/13 04:42:10;;;;;;;197.50;79.17;;;;;;;22.22;68.31;100899.81;4898048;28;96890;-54
2023/09/13 04:44:35;;;;;;;144.30;49.53;;;;;;;22.20;68.21;100892.00;4898738;28;96920;-54
2023/09/13 04:47:01;;;;;;;32.93;15.03;;;;;;;22.22;68.24;100897.03;4897923;28;105979;-54
2023/09/13 04:49:26;;;;;;;16.83;10.43;;;;;;;22.20;68.13;100900.41;4897311;28;106275;-53
2023/09/13 04:51:52;;;;;;;69.50;26.07;;;;;;;22.20;68.29;100903.19;4898648;28;97282;-53
2023/09/13 04:54:18;;;;;;;253.47;73.03;;;;;;;22.16;68.12;100902.84;4897654;28;97733;-53
2023/09/13 04:56:43;;;;;;;272.17;98.23;;;;;;;22.16;68.21;100914.06;4898760;28;97489;-53
2023/09/13 04:59:09;;;;;;;226.80;60.60;;;;;;;22.14;68.21;100915.94;4901875;28;97548;-53
2023/09/13 05:01:34;;;;;;;187.80;67.00;;;;;;;22.11;68.33;100915.00;4899810;28;97470;-53
2023/09/13 05:03:59;;;;;;;144.00;48.63;;;;;;;22.11;68.29;100917.06;4898520;28;97157;-53
2023/09/13 05:06:25;;;;;;;243.67;76.47;;;;;;;22.09;68.14;100920.44;4898847;28;97109;-53
2023/09/13 05:08:52;;;;;;;178.63;59.57;;;;;;;22.09;68.26;100919.69;4900499;28;97092;-53
2023/09/13 05:11:21;;;;;;;148.00;47.17;;;;;;;22.08;68.17;100921.75;4897099;28;97011;-53
2023/09/13 05:13:47;;;;;;;133.77;45.53;;;;;;;22.08;68.18;100926.63;4898572;28;98245;-53
2023/09/13 05:16:19;;;;;;;108.10;42.00;;;;;;;22.06;68.13;100921.56;4894904;28;96946;-53
2023/09/13 05:18:48;;;;;;;125.30;53.23;;;;;;;22.06;68.14;100921.56;4898759;28;96934;-53
2023/09/13 05:21:13;;;;;;;282.83;94.23;;;;;;;22.04;68.13;100931.88;4894570;28;97683;-53
2023/09/13 05:23:38;;;;;;;125.50;42.30;;;;;;;22.02;68.07;100935.22;4898029;28;97438;-53
2023/09/13 05:26:04;;;;;;;150.50;53.60;;;;;;;21.99;68.03;100933.56;4897366;28;97399;-53
2023/09/13 05:28:33;;;;;;;190.23;57.27;;;;;;;21.95;68.12;100930.38;4899249;28;100411;-53
2023/09/13 05:31:02;;;;;;;230.07;70.23;;;;;;;21.92;68.08;100945.53;4897935;28;96842;-53
2023/09/13 05:33:28;;;;;;;182.37;58.00;;;;;;;21.89;68.21;100945.91;4895411;28;99505;-53
2023/09/13 05:35:54;;;;;;;156.13;55.90;;;;;;;21.87;68.32;100929.66;4896240;28;100593;-53
2023/09/13 05:38:20;;;;;;;105.43;41.73;;;;;;;21.86;68.35;100938.66;4897083;28;97010;-53
2023/09/13 05:40:45;;;;;;;145.77;49.23;;;;;;;21.86;68.38;100930.25;4900918;28;97503;-54
2023/09/13 05:43:10;;;;;;;66.37;31.57;;;;;;;21.85;68.44;100940.69;4897249;28;96694;-53
2023/09/13 05:45:36;;;;;;;34.40;20.17;;;;;;;21.86;68.31;100947.03;4901600;28;107187;-53
2023/09/13 05:48:02;;;;;;;9.93;8.97;;;;;;;21.83;68.33;100940.50;4899718;28;97195;-53
2023/09/13 05:50:27;;;;;;;15.27;8.60;;;;;;;21.82;68.30;100936.19;4904172;28;97196;-54
2023/09/13 05:52:54;;;;;;;11.87;10.07;;;;;;;21.82;68.30;100941.06;4899096;28;97343;-54
2023/09/13 05:55:19;;;;;;;7.63;6.90;;;;;;;21.82;68.48;100941.06;4896447;28;97202;-54
2023/09/13 05:57:46;;;;;;;13.13;10.17;;;;;;;21.82;68.57;100941.78;4897751;28;100893;-54
2023/09/13 06:00:13;;;;;;;8.40;7.60;;;;;;;21.86;68.41;100953.41;4903806;28;96895;-53
2023/09/13 06:02:39;;;;;;;13.30;10.37;;;;;;;21.89;68.34;100963.47;4908251;28;98009;-53
2023/09/13 06:05:05;;;;;;;9.93;8.90;;;;;;;21.90;68.33;100962.16;4903396;28;98132;-53
2023/09/13 06:07:30;;;;;;;11.87;10.30;;;;;;;21.90;68.21;100959.38;4902440;28;97008;-53
2023/09/13 06:09:58;;;;;;;10.80;9.43;;;;;;;21.90;68.46;100964.97;4905894;28;97222;-53
2023/09/13 06:12:23;;;;;;;10.73;8.97;;;;;;;21.91;68.46;100972.03;4906196;28;97178;-53
2023/09/13 06:14:51;;;;;;;9.70;8.70;;;;;;;21.92;68.50;100970.75;4904379;28;97945;-53
2023/09/13 06:17:16;;;;;;;9.73;8.60;;;;;;;21.95;68.43;100972.41;4903353;28;97397;-53
2023/09/13 06:19:42;;;;;;;10.80;9.67;;;;;;;21.96;68.45;100971.09;4903198;28;104783;-53
2023/09/13 06:22:07;;;;;;;11.87;10.70;;;;;;;21.98;68.47;100965.69;4901098;28;96838;-54
2023/09/13 06:24:34;;;;;;;24.07;12.60;;;;;;;21.99;68.50;100967.19;4908197;28;96746;-54
2023/09/13 06:26:59;;;;;;;9.53;8.53;;;;;;;22.00;68.13;100965.88;4906491;28;97128;-53
2023/09/13 06:29:24;;;;;;;12.60;10.73;;;;;;;22.00;68.45;100970.72;4904108;28;97294;-53
2023/09/13 06:31:50;;;;;;;14.07;11.30;;;;;;;22.02;68.43;100980.06;4903459;28;110905;-53
2023/09/13 06:34:16;;;;;;;8.20;7.40;;;;;;;22.05;68.48;100984.53;4902818;28;98424;-53
2023/09/13 06:36:41;;;;;;;8.77;7.43;;;;;;;22.08;68.39;100979.88;4903039;28;97075;-53
2023/09/13 06:39:07;;;;;;;8.10;7.33;;;;;;;22.10;68.36;100991.25;4903688;28;97268;-53
2023/09/13 06:41:32;;;;;;;8.37;7.50;;;;;;;22.13;68.46;100995.72;4900861;28;106069;-53
2023/09/13 06:43:57;;;;;;;12.40;11.17;;;;;;;22.15;68.51;100996.63;4909778;28;96638;-54
2023/09/13 06:46:23;;;;;;;15.70;12.20;;;;;;;22.18;68.49;100989.91;4908954;28;97166;-54
2023/09/13 06:48:49;;;;;;;9.17;8.37;;;;;;;22.21;68.49;100999.97;4905544;28;97477;-53
2023/09/13 06:51:14;;;;;;;17.30;10.47;;;;;;;22.24;68.40;101003.72;4901808;28;100156;-54
2023/09/13 06:53:39;;;;;;;11.77;9.53;;;;;;;22.26;68.34;101001.09;4902591;28;102550;-54
2023/09/13 06:56:05;;;;;;;34.90;19.73;;;;;;;22.27;68.44;101000.53;4904922;28;96785;-53
2023/09/13 06:58:30;;;;;;;16.77;13.73;;;;;;;22.29;68.51;101006.31;4910477;28;97046;-53
2023/09/13 07:00:55;;;;;;;15.87;12.33;;;;;;;22.34;68.60;101002.56;4907497;28;96957;-53
2023/09/13 07:03:21;;;;;;;11.97;10.80;;;;;;;22.39;68.44;101004.41;4903295;28;97335;-54
2023/09/13 07:05:46;;;;;;;17.73;12.80;;;;;;;22.47;68.49;101010.00;4903143;28;99559;-54
2023/09/13 07:08:11;;;;;;;32.47;20.83;;;;;;;22.49;68.41;101003.81;4902694;28;96860;-53
2023/09/13 07:10:37;;;;;;;23.50;15.07;;;;;;;22.52;68.33;101011.09;4898189;28;97113;-54
2023/09/13 07:13:05;;;;;;;14.77;10.63;;;;;;;22.55;68.57;101015.56;4900720;28;97144;-54
2023/09/13 07:15:30;;;;;;;68.53;28.57;;;;;;;22.60;68.50;101009.03;4899764;28;97222;-54
2023/09/13 07:17:56;;;;;;;29.13;18.23;;;;;;;22.64;68.53;101006.56;4898822;28;96849;-54
2023/09/13 07:20:21;;;;;;;68.00;31.33;;;;;;;22.66;68.50;101013.13;4899190;28;97281;-54
2023/09/13 07:22:46;;;;;;;22.93;12.93;;;;;;;22.67;68.29;101019.47;4902729;28;107680;-54
2023/09/13 07:25:11;;;;;;;8.60;7.63;;;;;;;22.69;68.33;101014.03;4898000;28;97167;-54
2023/09/13 07:27:37;;;;;;;40.93;21.30;;;;;;;22.71;68.67;101017.03;4904603;28;97145;-54
2023/09/13 07:30:09;;;;;;;8.93;8.07;;;;;;;22.69;68.49;101020.41;4901654;28;97321;-54
2023/09/13 07:32:34;;;;;;;82.97;33.83;;;;;;;22.71;68.27;101019.81;4901862;28;97136;-54
2023/09/13 07:35:00;;;;;;;62.53;27.33;;;;;;;22.73;68.43;101029.16;4904415;28;96719;-53
2023/09/13 07:37:27;;;;;;;28.40;20.57;;;;;;;22.71;68.46;101017.78;4897935;28;97387;-54
2023/09/13 07:39:52;;;;;;;21.27;16.67;;;;;;;22.71;68.43;101031.03;4899821;28;96959;-53
2023/09/13 07:42:18;;;;;;;18.57;12.90;;;;;;;22.69;68.20;101033.69;4900642;28;97149;-53
2023/09/13 07:44:43;;;;;;;27.70;14.57;;;;;;;22.68;68.29;101044.16;4901639;28;97132;-54
2023/09/13 07:47:08;;;;;;;9.17;8.37;;;;;;;22.69;68.36;101037.22;4900503;28;97399;-54
2023/09/13 07:49:34;;;;;;;37.07;19.10;;;;;;;22.68;68.34;101049.00;4902057;28;97000;-54
2023/09/13 07:51:59;;;;;;;13.40;9.67;;;;;;;22.66;68.34;101055.19;4898851;28;97416;-54
2023/09/13 07:54:25;;;;;;;105.53;42.27;;;;;;;22.67;68.50;101053.88;4897518;28;97207;-54
2023/09/13 07:56:50;;;;;;;35.13;18.53;;;;;;;22.69;68.39;101059.69;4899926;28;97341;-54
2023/09/13 07:59:17;;;;;;;6.53;5.93;;;;;;;22.75;68.43;101051.03;4900121;28;97394;-54
2023/09/13 08:01:42;;;;;;;19.47;11.47;;;;;;;22.80;68.34;101061.31;4899604;28;99377;-54
2023/09/13 08:04:08;;;;;;;6.00;5.50;;;;;;;22.82;68.53;101056.63;4901672;28;96694;-54
2023/09/13 08:06:33;;;;;;;9.50;8.60;;;;;;;22.86;68.46;101054.16;4903156;28;97491;-54
2023/09/13 08:08:58;;;;;;;5.90;5.40;;;;;;;22.91;68.35;101070.03;4898433;28;97837;-54
2023/09/13 08:11:24;;;;;;;40.80;22.40;;;;;;;22.95;68.47;101075.25;4897735;28;97957;-54
2023/09/13 08:13:49;;;;;;;47.47;27.10;;;;;;;23.00;68.30;101065.84;4904573;28;98617;-54
2023/09/13 08:16:15;;;;;;;41.80;26.03;;;;;;;23.05;68.46;101074.06;4898513;28;97009;-54
2023/09/13 08:18:40;;;;;;;15.53;8.07;;;;;;;23.07;68.20;101079.88;4899106;28;97310;-54
2023/09/13 08:21:06;;;;;;;76.03;33.93;;;;;;;23.06;68.34;101078.38;4900338;28;97115;-54
2023/09/13 08:23:31;;;;;;;36.37;13.10;;;;;;;23.04;68.27;101078.19;4900832;28;97119;-54
2023/09/13 08:25:56;;;;;;;33.13;18.73;;;;;;;23.02;68.13;101086.44;4900885;28;96718;-53
2023/09/13 08:28:23;;;;;;;27.93;12.00;;;;;;;23.01;68.25;101089.81;4900203;28;97259;-54
2023/09/13 08:30:49;;;;;;;25.90;13.40;;;;;;;23.00;68.25;101096.72;4897656;28;96989;-54
2023/09/13 08:33:16;;;;;;;110.63;35.03;;;;;;;22.95;68.23;101103.31;4898746;28;96887;-54
2023/09/13 08:35:41;;;;;;;7.53;6.57;;;;;;;22.84;68.44;101103.75;4902067;28;97228;-55
2023/09/13 08:38:06;;;;;;;30.83;11.17;;;;;;;22.76;68.42;101114.25;4900421;28;97306;-53
2023/09/13 08:40:32;;;;;;;127.93;46.80;;;;;;;22.66;68.29;101110.53;4899374;28;98846;-53
2023/09/13 08:42:58;;;;;;;146.93;49.40;;;;;;;22.56;68.77;101123.63;4899514;28;97094;-53
2023/09/13 08:45:23;;;;;;;131.30;43.33;;;;;;;22.49;68.28;101118.78;4898006;28;97340;-53
2023/09/13 08:47:52;;;;;;;91.80;30.20;;;;;;;22.46;68.34;101131.88;4901338;28;97322;-53
2023/09/13 08:50:23;;;;;;;133.27;52.17;;;;;;;22.39;68.12;101136.19;4896916;28;97467;-53
2023/09/13 08:52:50;;;;;;;113.30;31.50;;;;;;;22.30;68.01;101141.66;4900363;28;97302;-53
2023/09/13 08:55:18;;;;;;;144.50;44.13;;;;;;;22.25;68.22;101145.38;4898731;28;97357;-54
2023/09/13 08:57:44;;;;;;;98.40;32.27;;;;;;;22.20;68.32;101149.88;4899614;28;97887;-53
2023/09/13 09:00:09;;;;;;;142.23;51.13;;;;;;;22.18;68.32;101146.13;4899743;28;97243;-54
2023/09/13 09:02:36;;;;;;;65.93;21.00;;;;;;;22.09;68.21;101155.09;4899824;28;97247;-54
2023/09/13 09:05:07;;;;;;;1.53;1.43;;;;;;;22.00;68.01;101156.41;4899976;28;97802;-54
2023/09/13 09:07:33;;;;;;;39.90;11.13;;;;;;;21.88;68.02;101152.50;4903083;28;97966;-54
2023/09/13 09:09:59;;;;;;;37.57;14.53;;;;;;;21.84;68.12;101160.50;4899362;28;97380;-54
2023/09/13 09:12:26;;;;;;;34.13;13.47;;;;;;;21.80;68.18;101162.19;4898668;28;97158;-54
2023/09/13 09:14:53;;;;;;;62.17;23.00;;;;;;;21.81;68.23;101170.00;4898387;28;97613;-54
2023/09/13 09:17:22;;;;;;;12.83;6.03;;;;;;;21.80;68.27;101174.09;4898567;28;97339;-54
2023/09/13 09:19:48;;;;;;;64.53;21.80;;;;;;;21.80;68.28;101178.97;4897713;28;98365;-54
2023/09/13 09:22:16;;;;;;;1.60;1.50;;;;;;;21.80;68.58;101178.97;4899574;28;96850;-54
2023/09/13 09:24:41;;;;;;;97.50;30.90;;;;;;;21.85;68.44;101192.81;4899190;28;96971;-54
2023/09/13 09:27:07;;;;;;;33.87;10.40;;;;;;;21.86;68.22;101199.94;4899682;28;103778;-53
2023/09/13 09:29:36;;;;;;;43.30;13.67;;;;;;;21.82;68.24;101193.19;4899517;28;99965;-53
2023/09/13 09:32:02;;;;;;;39.37;12.80;;;;;;;21.81;67.98;101198.03;4897301;28;97076;-53
2023/09/13 09:34:31;;;;;;;74.33;24.57;;;;;;;21.82;68.04;101195.97;4894724;28;97136;-53
2023/09/13 09:37:04;;;;;;;9.20;5.17;;;;;;;21.80;68.04;101202.13;4898966;28;97462;-54
2023/09/13 09:39:29;;;;;;;42.40;20.87;;;;;;;21.76;67.91;101203.78;4902107;28;97424;-54
2023/09/13 09:41:58;;;;;;;2.63;2.43;;;;;;;21.72;67.78;101206.97;4899162;28;96784;-54
2023/09/13 09:44:28;;;;;;;52.80;15.13;;;;;;;21.71;67.99;101199.84;4898205;28;97213;-54
2023/09/13 09:46:53;;;;;;;2.37;2.20;;;;;;;21.71;68.13;101211.06;4896759;28;97417;-54
2023/09/13 09:49:19;;;;;;;9.67;3.13;;;;;;;21.70;67.97;101220.03;4897947;28;97212;-54
2023/09/13 09:51:44;;;;;;;11.43;5.03;;;;;;;21.69;67.88;101213.66;4899491;28;97269;-54
2023/09/13 09:54:10;;;;;;;2.13;2.03;;;;;;;21.68;67.80;101223.41;4898327;28;96975;-54
2023/09/13 09:56:35;;;;;;;10.33;6.47;;;;;;;21.62;67.67;101220.75;4897316;28;96783;-55
2023/09/13 09:59:01;;;;;;;4.57;3.30;;;;;;;21.52;67.46;101221.84;4901580;28;97147;-55
2023/09/13 10:01:26;;;;;;;2.63;2.47;;;;;;;21.48;67.73;101225.00;4898793;28;97633;-55
2023/09/13 10:03:54;;;;;;;7.80;4.73;;;;;;;21.49;67.78;101223.69;4897688;28;97662;-55
2023/09/13 10:06:20;;;;;;;3.50;2.90;;;;;;;21.50;67.73;101228.00;4896901;28;97422;-55
2023/09/13 10:08:47;;;;;;;8.97;4.50;;;;;;;21.46;67.45;101238.06;4899042;28;96718;-55
2023/09/13 10:11:19;;;;;;;4.00;3.70;;;;;;;21.39;67.54;101236.75;4897541;28;97001;-55
2023/09/13 10:13:45;;;;;;;2.70;2.50;;;;;;;21.30;67.50;101242.84;4897825;28;96623;-55
2023/09/13 10:16:12;;;;;;;3.83;2.60;;;;;;;21.21;67.44;101239.84;4900200;28;97481;-55
2023/09/13 10:18:48;;;;;;;3.70;2.90;;;;;;;21.14;67.35;101240.56;4896224;28;97119;-55
2023/09/13 10:21:17;;;;;;;4.60;3.07;;;;;;;21.05;67.60;101241.06;4898017;28;96817;-55
2023/09/13 10:23:45;;;;;;;3.70;2.97;;;;;;;20.96;67.19;101244.34;4899108;28;97281;-55
2023/09/13 10:26:15;;;;;;;3.53;3.23;;;;;;;20.85;67.61;101251.75;4896717;28;97432;-55
2023/09/13 10:28:44;;;;;;;3.97;3.60;;;;;;;20.77;67.43;101264.19;4898220;28;97654;-55
2023/09/13 10:31:24;;;;;;;5.70;3.73;;;;;;;20.70;67.46;101276.81;4898051;28;97126;-55
2023/09/13 10:33:54;;;;;;;3.73;3.40;;;;;;;20.68;67.63;101282.19;4892399;28;97421;-55
2023/09/13 10:36:26;;;;;;;4.67;3.30;;;;;;;20.64;67.29;101287.38;4893841;28;98828;-55
2023/09/13 10:39:00;;;;;;;5.77;4.80;;;;;;;20.60;67.50;101286.22;4895191;28;98367;-55
2023/09/13 10:41:32;;;;;;;6.10;3.60;;;;;;;20.52;67.32;101288.19;4892775;28;97055;-56
2023/09/13 10:43:58;;;;;;;7.23;3.93;;;;;;;20.44;67.30;101288.16;4902449;28;97214;-55
2023/09/13 10:46:23;;;;;;;3.37;3.07;;;;;;;20.39;67.38;101279.88;4898260;28;98048;-55
2023/09/13 10:48:49;;;;;;;4.90;3.30;;;;;;;20.33;67.30;101293.25;4896397;28;97793;-56
2023/09/13 10:51:15;;;;;;;5.80;2.60;;;;;;;20.27;67.29;101296.16;4897560;28;97213;-56
2023/09/13 10:53:42;;;;;;;2.93;2.63;;;;;;;20.23;67.42;101292.97;4897366;28;97441;-55
2023/09/13 10:56:11;;;;;;;5.47;2.70;;;;;;;20.19;67.52;101298.13;4898334;28;97430;-55
2023/09/13 10:58:38;;;;;;;2.57;1.90;;;;;;;20.17;67.33;101307.06;4900382;28;97004;-55
2023/09/13 11:01:05;;;;;;;5.10;2.10;;;;;;;20.18;67.30;101307.81;4899471;28;97608;-55
2023/09/13 11:03:30;;;;;;;3.70;1.90;;;;;;;20.21;67.19;101315.13;4899388;28;96806;-56
2023/09/13 11:05:57;;;;;;;2.90;1.87;;;;;;;20.25;67.21;101329.50;4902287;28;97133;-55
2023/09/13 11:08:33;;;;;;;2.83;1.80;;;;;;;20.30;67.03;101314.66;4899664;28;99661;-55